Time,TemperatureF,DewpointF,PressureIn,WindDirection,WindDirectionDegrees,WindSpeedMPH,WindSpeedGustMPH,Humidity,HourlyPrecipIn,Conditions,Clouds,dailyrainin,SoftwareType,DateUTC
2013-04-28 00:03:00,42.0,-99.9,30.29,SSW,208,0.0,1.0,79,0.00,,,0.00,,2013-04-28 04:03:00,
2013-04-28 00:13:00,42.0,36.0,30.29,SSW,208,0.0,1.0,79,0.00,,,0.00,,2013-04-28 04:13:00,
2013-04-28 00:23:00,41.0,35.0,30.30,SSW,208,0.0,0.0,80,0.00,,,0.00,,2013-04-28 04:23:00,
2013-04-28 00:32:00,41.0,35.0,30.29,SSW,209,0.0,4.0,80,0.00,,,0.00,,2013-04-28 04:32:00,
2013-04-28 00:43:00,41.0,35.0,30.29,SSW,209,0.0,4.0,80,0.00,,,0.00,,2013-04-28 04:43:00,
2013-04-28 00:53:00,41.0,35.0,30.29,SW,217,2.0,4.0,80,0.00,,,0.00,,2013-04-28 04:53:00,
2013-04-28 01:02:00,40.0,35.0,30.29,SW,218,0.0,3.0,81,0.00,,,0.00,,2013-04-28 05:02:00,
2013-04-28 01:12:00,40.0,35.0,30.29,SW,218,0.0,3.0,81,0.00,,,0.00,,2013-04-28 05:12:00,
2013-04-28 01:22:00,40.0,35.0,30.29,SW,218,0.0,0.0,82,0.00,,,0.00,,2013-04-28 05:22:00,
2013-04-28 01:32:00,40.0,35.0,30.29,SW,218,0.0,0.0,82,0.00,,,0.00,,2013-04-28 05:32:00,
2013-04-28 01:42:00,40.0,35.0,30.29,SW,218,0.0,0.0,82,0.00,,,0.00,,2013-04-28 05:42:00,
2013-04-28 01:52:00,40.0,35.0,30.29,SW,218,0.0,0.0,83,0.00,,,0.00,,2013-04-28 05:52:00,
2013-04-28 02:01:00,40.0,35.0,30.28,SW,218,0.0,0.0,83,0.00,,,0.00,,2013-04-28 06:01:00,
2013-04-28 02:13:00,40.0,35.0,30.28,SW,218,0.0,0.0,83,0.00,,,0.00,,2013-04-28 06:13:00,
2013-04-28 02:21:00,40.0,36.0,30.28,SW,218,0.0,0.0,84,0.00,,,0.00,,2013-04-28 06:21:00,
2013-04-28 02:32:00,39.0,35.0,30.27,SW,218,0.0,0.0,85,0.00,,,0.00,,2013-04-28 06:32:00,
2013-04-28 02:42:00,39.0,35.0,30.27,SW,218,0.0,0.0,85,0.00,,,0.00,,2013-04-28 06:42:00,
2013-04-28 02:52:00,39.0,35.0,30.27,SW,218,0.0,0.0,85,0.00,,,0.00,,2013-04-28 06:52:00,
2013-04-28 03:02:00,39.0,35.0,30.27,SW,218,0.0,0.0,86,0.00,,,0.00,,2013-04-28 07:02:00,
2013-04-28 03:11:00,39.0,35.0,30.27,SW,218,0.0,0.0,86,0.00,,,0.00,,2013-04-28 07:11:00,
2013-04-28 03:21:00,38.0,34.0,30.27,SW,218,0.0,0.0,86,0.00,,,0.00,,2013-04-28 07:21:00,
2013-04-28 03:32:00,38.0,34.0,30.27,SW,218,0.0,0.0,87,0.00,,,0.00,,2013-04-28 07:32:00,
2013-04-28 03:42:00,38.0,34.0,30.27,SW,218,0.0,0.0,87,0.00,,,0.00,,2013-04-28 07:42:00,
2013-04-28 03:52:00,38.0,34.0,30.27,SW,218,0.0,0.0,87,0.00,,,0.00,,2013-04-28 07:52:00,
2013-04-28 04:02:00,38.0,35.0,30.27,SW,218,0.0,0.0,88,0.00,,,0.00,,2013-04-28 08:02:00,
2013-04-28 04:11:00,38.0,35.0,30.27,SW,218,0.0,0.0,88,0.00,,,0.00,,2013-04-28 08:11:00,
2013-04-28 04:21:00,38.0,35.0,30.26,SW,218,0.0,0.0,88,0.00,,,0.00,,2013-04-28 08:21:00,
2013-04-28 04:32:00,37.0,34.0,30.26,SW,218,0.0,0.0,88,0.00,,,0.00,,2013-04-28 08:32:00,
2013-04-28 04:42:00,37.0,34.0,30.26,SW,218,0.0,0.0,88,0.00,,,0.00,,2013-04-28 08:42:00,
2013-04-28 04:52:00,37.0,34.0,30.26,SW,218,0.0,0.0,89,0.00,,,0.00,,2013-04-28 08:52:00,
2013-04-28 05:01:00,37.0,34.0,30.26,SW,218,0.0,0.0,89,0.00,,,0.00,,2013-04-28 09:01:00,
2013-04-28 05:12:00,37.0,34.0,30.26,SW,218,0.0,0.0,89,0.00,,,0.00,,2013-04-28 09:12:00,
2013-04-28 05:21:00,37.0,34.0,30.26,SW,218,0.0,0.0,89,0.00,,,0.00,,2013-04-28 09:21:00,
2013-04-28 05:33:00,37.0,34.0,30.25,SW,218,0.0,2.0,89,0.00,,,0.00,,2013-04-28 09:33:00,
2013-04-28 05:42:00,37.0,34.0,30.25,SW,218,0.0,2.0,89,0.00,,,0.00,,2013-04-28 09:42:00,
2013-04-28 05:53:00,37.0,34.0,30.25,SW,218,0.0,3.0,89,0.00,,,0.00,,2013-04-28 09:53:00,
2013-04-28 06:03:00,37.0,34.0,30.25,SW,217,0.0,3.0,90,0.00,,,0.00,,2013-04-28 10:03:00,
2013-04-28 06:12:00,37.0,34.0,30.25,SW,217,0.0,3.0,90,0.00,,,0.00,,2013-04-28 10:12:00,
2013-04-28 06:22:00,37.0,34.0,30.26,SW,217,0.0,0.0,90,0.00,,,0.00,,2013-04-28 10:22:00,
2013-04-28 06:32:00,37.0,34.0,30.26,SW,217,0.0,0.0,90,0.00,,,0.00,,2013-04-28 10:32:00,
2013-04-28 06:42:00,37.0,34.0,30.26,SW,217,0.0,0.0,90,0.00,,,0.00,,2013-04-28 10:42:00,
2013-04-28 06:52:00,37.0,34.0,30.26,SW,217,0.0,0.0,90,0.00,,,0.00,,2013-04-28 10:52:00,
2013-04-28 07:02:00,38.0,36.0,30.27,SW,217,0.0,0.0,91,0.00,,,0.00,,2013-04-28 11:02:00,
2013-04-28 07:11:00,38.0,36.0,30.27,SW,217,0.0,0.0,91,0.00,,,0.00,,2013-04-28 11:11:00,
2013-04-28 07:22:00,38.0,36.0,30.27,SW,217,0.0,0.0,91,0.00,,,0.00,,2013-04-28 11:22:00,
2013-04-28 07:32:00,41.0,39.0,30.28,SW,221,0.0,3.0,92,0.00,,,0.00,,2013-04-28 11:32:00,
2013-04-28 07:42:00,41.0,39.0,30.28,SW,221,0.0,3.0,92,0.00,,,0.00,,2013-04-28 11:42:00,
2013-04-28 07:52:00,42.0,40.0,30.28,SW,221,1.0,2.0,92,0.00,,,0.00,,2013-04-28 11:52:00,
2013-04-28 08:02:00,46.0,43.0,30.28,SW,221,0.0,2.0,88,0.00,,,0.00,,2013-04-28 12:02:00,
2013-04-28 08:12:00,46.0,43.0,30.28,SW,221,0.0,2.0,88,0.00,,,0.00,,2013-04-28 12:12:00,
2013-04-28 08:21:00,48.0,43.0,30.29,WSW,240,2.0,4.0,83,0.00,,,0.00,,2013-04-28 12:21:00,
2013-04-28 08:32:00,53.0,42.0,30.29,WSW,244,6.0,9.0,65,0.00,,,0.00,,2013-04-28 12:32:00,
2013-04-28 08:42:00,53.0,42.0,30.29,WSW,244,6.0,9.0,65,0.00,,,0.00,,2013-04-28 12:42:00,
2013-04-28 08:52:00,55.0,41.0,30.29,West,264,3.0,6.0,58,0.00,,,0.00,,2013-04-28 12:52:00,
2013-04-28 09:02:00,58.0,37.0,30.30,West,259,1.0,9.0,46,0.00,,,0.00,,2013-04-28 13:02:00,
2013-04-28 09:11:00,58.0,37.0,30.30,West,259,1.0,9.0,46,0.00,,,0.00,,2013-04-28 13:11:00,
2013-04-28 09:21:00,59.0,37.0,30.30,WSW,246,1.0,12.0,44,0.00,,,0.00,,2013-04-28 13:21:00,
2013-04-28 09:32:00,60.0,39.0,30.30,SSW,209,3.0,11.0,46,0.00,,,0.00,,2013-04-28 13:32:00,
2013-04-28 09:42:00,60.0,39.0,30.30,SSW,209,3.0,11.0,46,0.00,,,0.00,,2013-04-28 13:42:00,
2013-04-28 09:52:00,61.0,36.0,30.30,SW,219,3.0,7.0,40,0.00,,,0.00,,2013-04-28 13:52:00,
2013-04-28 10:02:00,63.0,38.0,30.29,SW,232,6.0,10.0,40,0.00,,,0.00,,2013-04-28 14:02:00,
2013-04-28 10:11:00,63.0,38.0,30.29,SW,232,6.0,10.0,40,0.00,,,0.00,,2013-04-28 14:11:00,
2013-04-28 10:22:00,62.0,37.0,30.29,SSW,203,4.0,9.0,40,0.00,,,0.00,,2013-04-28 14:22:00,
2013-04-28 10:32:00,63.0,37.0,30.29,South,184,5.0,11.0,38,0.00,,,0.00,,2013-04-28 14:32:00,
2013-04-28 10:42:00,63.0,37.0,30.29,South,184,5.0,11.0,38,0.00,,,0.00,,2013-04-28 14:42:00,
2013-04-28 10:52:00,64.0,39.0,30.29,South,173,3.0,18.0,39,0.00,,,0.00,,2013-04-28 14:52:00,
2013-04-28 11:02:00,64.0,39.0,30.28,SSW,195,1.0,17.0,40,0.00,,,0.00,,2013-04-28 15:02:00,
2013-04-28 11:12:00,64.0,39.0,30.28,SSW,195,1.0,17.0,40,0.00,,,0.00,,2013-04-28 15:12:00,
2013-04-28 11:21:00,64.0,40.0,30.28,South,186,10.0,14.0,41,0.00,,,0.00,,2013-04-28 15:21:00,
2013-04-28 11:32:00,65.0,39.0,30.28,South,174,5.0,13.0,38,0.00,,,0.00,,2013-04-28 15:32:00,
2013-04-28 11:42:00,65.0,39.0,30.28,South,174,5.0,13.0,38,0.00,,,0.00,,2013-04-28 15:42:00,
2013-04-28 11:53:00,66.0,41.0,30.27,WSW,254,4.0,17.0,40,0.00,,,0.00,,2013-04-28 15:53:00,
2013-04-28 12:03:00,66.0,40.0,30.27,SW,226,11.0,18.0,38,0.00,,,0.00,,2013-04-28 16:03:00,
2013-04-28 12:13:00,66.0,40.0,30.27,SW,226,11.0,18.0,38,0.00,,,0.00,,2013-04-28 16:13:00,
2013-04-28 12:23:00,66.0,42.0,30.26,South,173,3.0,14.0,42,0.00,,,0.00,,2013-04-28 16:23:00,
2013-04-28 12:33:00,67.0,41.0,30.26,South,187,11.0,14.0,38,0.00,,,0.00,,2013-04-28 16:33:00,
2013-04-28 12:42:00,67.0,41.0,30.26,South,187,11.0,14.0,38,0.00,,,0.00,,2013-04-28 16:42:00,
2013-04-28 12:52:00,67.0,41.0,30.26,SSW,194,1.0,14.0,39,0.00,,,0.00,,2013-04-28 16:52:00,
2013-04-28 13:02:00,68.0,42.0,30.25,SW,222,8.0,16.0,39,0.00,,,0.00,,2013-04-28 17:02:00,
2013-04-28 13:12:00,68.0,42.0,30.25,SW,222,8.0,16.0,39,0.00,,,0.00,,2013-04-28 17:12:00,
2013-04-28 13:22:00,67.0,41.0,30.24,WSW,237,6.0,12.0,38,0.00,,,0.00,,2013-04-28 17:22:00,
2013-04-28 13:32:00,68.0,42.0,30.24,South,174,4.0,10.0,39,0.00,,,0.00,,2013-04-28 17:32:00,
2013-04-28 13:42:00,68.0,42.0,30.24,South,174,4.0,10.0,39,0.00,,,0.00,,2013-04-28 17:42:00,
2013-04-28 13:52:00,67.0,41.0,30.23,SSE,166,8.0,15.0,39,0.00,,,0.00,,2013-04-28 17:52:00,
2013-04-28 14:02:00,68.0,41.0,30.23,WSW,250,9.0,13.0,37,0.00,,,0.00,,2013-04-28 18:02:00,
2013-04-28 14:12:00,68.0,41.0,30.23,WSW,250,9.0,13.0,37,0.00,,,0.00,,2013-04-28 18:12:00,
2013-04-28 14:22:00,68.0,40.0,30.23,SE,142,9.0,22.0,36,0.00,,,0.00,,2013-04-28 18:22:00,
2013-04-28 14:32:00,69.0,41.0,30.22,SW,217,3.0,17.0,36,0.00,,,0.00,,2013-04-28 18:32:00,
2013-04-28 14:42:00,69.0,41.0,30.22,SW,217,3.0,17.0,36,0.00,,,0.00,,2013-04-28 18:42:00,
2013-04-28 14:52:00,69.0,41.0,30.22,SSW,192,3.0,17.0,36,0.00,,,0.00,,2013-04-28 18:52:00,
2013-04-28 15:02:00,69.0,43.0,30.22,South,182,11.0,17.0,39,0.00,,,0.00,,2013-04-28 19:02:00,
2013-04-28 15:11:00,69.0,43.0,30.22,South,182,11.0,17.0,39,0.00,,,0.00,,2013-04-28 19:11:00,
2013-04-28 15:22:00,69.0,43.0,30.22,South,172,9.0,18.0,39,0.00,,,0.00,,2013-04-28 19:22:00,
2013-04-28 15:32:00,68.0,41.0,30.21,SSE,158,11.0,18.0,38,0.00,,,0.00,,2013-04-28 19:32:00,
2013-04-28 15:42:00,68.0,41.0,30.21,SSE,158,11.0,18.0,38,0.00,,,0.00,,2013-04-28 19:42:00,
2013-04-28 15:52:00,68.0,42.0,30.21,SSW,200,9.0,17.0,39,0.00,,,0.00,,2013-04-28 19:52:00,
2013-04-28 16:02:00,66.0,40.0,30.20,SSW,194,8.0,20.0,38,0.00,,,0.00,,2013-04-28 20:02:00,
2013-04-28 16:12:00,66.0,40.0,30.20,SSW,194,8.0,20.0,38,0.00,,,0.00,,2013-04-28 20:12:00,
2013-04-28 16:22:00,66.0,40.0,30.20,SSW,193,10.0,22.0,38,0.00,,,0.00,,2013-04-28 20:22:00,
2013-04-28 16:32:00,66.0,41.0,30.20,SSW,198,11.0,22.0,40,0.00,,,0.00,,2013-04-28 20:32:00,
2013-04-28 16:42:00,66.0,41.0,30.20,SSW,198,11.0,22.0,40,0.00,,,0.00,,2013-04-28 20:42:00,
2013-04-28 16:52:00,66.0,39.0,30.20,South,185,11.0,22.0,37,0.00,,,0.00,,2013-04-28 20:52:00,
2013-04-28 17:01:00,65.0,38.0,30.19,SSW,204,10.0,22.0,37,0.00,,,0.00,,2013-04-28 21:01:00,
2013-04-28 17:11:00,65.0,38.0,30.19,SSW,204,10.0,22.0,37,0.00,,,0.00,,2013-04-28 21:11:00,
2013-04-28 17:22:00,64.0,39.0,30.20,South,173,8.0,23.0,39,0.00,,,0.00,,2013-04-28 21:22:00,
2013-04-28 17:33:00,63.0,37.0,30.20,South,171,7.0,20.0,38,0.00,,,0.00,,2013-04-28 21:33:00,
2013-04-28 17:42:00,63.0,37.0,30.20,South,171,7.0,20.0,38,0.00,,,0.00,,2013-04-28 21:42:00,
2013-04-28 17:52:00,63.0,37.0,30.20,SSW,196,14.0,21.0,38,0.00,,,0.00,,2013-04-28 21:52:00,
2013-04-28 18:03:00,61.0,37.0,30.20,SE,144,11.0,17.0,41,0.00,,,0.00,,2013-04-28 22:03:00,
2013-04-28 18:13:00,61.0,37.0,30.20,SE,144,11.0,17.0,41,0.00,,,0.00,,2013-04-28 22:13:00,
2013-04-28 18:23:00,61.0,36.0,30.21,SW,214,11.0,18.0,40,0.00,,,0.00,,2013-04-28 22:23:00,
2013-04-28 18:33:00,59.0,35.0,30.20,SSW,207,8.0,25.0,41,0.00,,,0.00,,2013-04-28 22:33:00,
2013-04-28 18:42:00,59.0,35.0,30.20,SSW,207,8.0,25.0,41,0.00,,,0.00,,2013-04-28 22:42:00,
2013-04-28 18:52:00,59.0,36.0,30.20,SSE,154,6.0,19.0,42,0.00,,,0.00,,2013-04-28 22:52:00,
2013-04-28 19:02:00,58.0,36.0,30.20,SSE,153,7.0,16.0,43,0.00,,,0.00,,2013-04-28 23:02:00,
2013-04-28 19:12:00,58.0,36.0,30.20,SSE,153,7.0,16.0,43,0.00,,,0.00,,2013-04-28 23:12:00,
2013-04-28 19:22:00,57.0,35.0,30.21,SSE,156,5.0,13.0,43,0.00,,,0.00,,2013-04-28 23:22:00,
2013-04-28 19:32:00,56.0,34.0,30.20,SSE,152,5.0,17.0,43,0.00,,,0.00,,2013-04-28 23:32:00,
2013-04-28 19:42:00,56.0,34.0,30.20,SSE,152,5.0,17.0,43,0.00,,,0.00,,2013-04-28 23:42:00,
2013-04-28 19:52:00,56.0,34.0,30.20,SSE,162,4.0,15.0,44,0.00,,,0.00,,2013-04-28 23:52:00,
2013-04-28 20:01:00,55.0,34.0,30.20,SSE,160,5.0,12.0,45,0.00,,,0.00,,2013-04-29 00:01:00,
2013-04-28 20:11:00,55.0,34.0,30.20,SSE,160,5.0,12.0,45,0.00,,,0.00,,2013-04-29 00:11:00,
2013-04-28 20:22:00,54.0,33.0,30.21,SSW,203,1.0,11.0,45,0.00,,,0.00,,2013-04-29 00:22:00,
2013-04-28 20:32:00,53.0,32.0,30.21,SSE,165,5.0,10.0,44,0.00,,,0.00,,2013-04-29 00:32:00,
2013-04-28 20:42:00,53.0,32.0,30.21,SSE,165,5.0,10.0,44,0.00,,,0.00,,2013-04-29 00:42:00,
2013-04-28 20:52:00,53.0,33.0,30.20,South,173,4.0,9.0,46,0.00,,,0.00,,2013-04-29 00:52:00,
2013-04-28 21:01:00,52.0,31.0,30.21,SSE,163,4.0,10.0,45,0.00,,,0.00,,2013-04-29 01:01:00,
2013-04-28 21:12:00,51.0,30.0,30.21,South,176,2.0,10.0,45,0.00,,,0.00,,2013-04-29 01:12:00,
2013-04-28 21:21:00,51.0,30.0,30.21,South,176,2.0,10.0,45,0.00,,,0.00,,2013-04-29 01:21:00,
2013-04-28 21:32:00,51.0,31.0,30.22,South,187,3.0,7.0,46,0.00,,,0.00,,2013-04-29 01:32:00,
2013-04-28 21:42:00,51.0,31.0,30.22,South,187,3.0,7.0,46,0.00,,,0.00,,2013-04-29 01:42:00,
2013-04-28 21:52:00,50.0,31.0,30.22,South,184,2.0,12.0,47,0.00,,,0.00,,2013-04-29 01:52:00,
2013-04-28 22:02:00,49.0,31.0,30.22,SSW,202,1.0,7.0,49,0.00,,,0.00,,2013-04-29 02:02:00,
2013-04-28 22:11:00,49.0,31.0,30.22,SSW,202,1.0,7.0,49,0.00,,,0.00,,2013-04-29 02:11:00,
2013-04-28 22:22:00,49.0,32.0,30.22,SSW,203,3.0,11.0,51,0.00,,,0.00,,2013-04-29 02:22:00,
2013-04-28 22:32:00,48.0,33.0,30.23,SSW,211,3.0,7.0,55,0.00,,,0.00,,2013-04-29 02:32:00,
2013-04-28 22:42:00,48.0,33.0,30.23,SSW,211,3.0,7.0,55,0.00,,,0.00,,2013-04-29 02:42:00,
2013-04-28 22:52:00,48.0,34.0,30.23,SSW,198,2.0,6.0,57,0.00,,,0.00,,2013-04-29 02:52:00,
2013-04-28 23:01:00,47.0,35.0,30.23,SSW,202,3.0,6.0,62,0.00,,,0.00,,2013-04-29 03:01:00,
2013-04-28 23:12:00,47.0,35.0,30.23,SSW,202,3.0,6.0,62,0.00,,,0.00,,2013-04-29 03:12:00,
2013-04-28 23:21:00,47.0,36.0,30.23,South,183,2.0,5.0,65,0.00,,,0.00,,2013-04-29 03:21:00,
2013-04-28 23:33:00,47.0,38.0,30.23,South,184,1.0,5.0,72,0.00,,,0.00,,2013-04-29 03:33:00,
2013-04-28 23:42:00,47.0,38.0,30.23,South,184,1.0,5.0,72,0.00,,,0.00,,2013-04-29 03:42:00,
2013-04-28 23:52:00,47.0,39.0,30.23,South,190,1.0,5.0,73,0.00,,,0.00,,2013-04-29 03:52:00,